Thursday, August 27, 2015, 5:22 PM EDT

KFYJ, West Point, Middle Peninsula Regional Airport

Location: Shacklefords, VA, United States Lat: 37.521
Local Time: 5:22 PM EDT (21:22 GMT) Lon: -76.764
Time Zone: US/Eastern Elev: 22 ft

Show me the last for .
Show Decoded

2015-08-27 16:55 METAR KFYJ 272055Z AUTO 02004KT 10SM SCT065 28/11 A3009 RMK AO2 T02800114 =
2015-08-27 16:35 METAR KFYJ 272035Z AUTO 06005KT 10SM BKN065 29/11 A3009 RMK AO2 T02880113 =
2015-08-27 16:15 METAR KFYJ 272015Z AUTO 03003KT 10SM SCT060 BKN065 28/11 A3009 RMK AO2 T02820107
                 =
2015-08-27 15:55 METAR KFYJ 271955Z AUTO 03006KT 10SM SCT050 29/11 A3009 RMK AO2 T02860111 =
2015-08-27 15:35 METAR KFYJ 271935Z AUTO 33004KT 10SM SCT050 28/11 A3009 RMK AO2 T02840110 =
2015-08-27 15:15 METAR KFYJ 271915Z AUTO 34003KT 10SM BKN050 29/11 A3010 RMK AO2 T02880108 =
2015-08-27 14:55 METAR KFYJ 271855Z AUTO 01006KT 10SM BKN050 29/11 A3010 RMK AO2 T02900110 =
2015-08-27 14:35 METAR KFYJ 271835Z AUTO 35005KT 10SM SCT055 29/11 A3010 RMK AO2 T02930111 =
2015-08-27 14:15 METAR KFYJ 271815Z AUTO 12005KT 10SM CLR 29/11 A3011 RMK AO2 T02870109 =
2015-08-27 13:55 METAR KFYJ 271755Z AUTO 36004KT 10SM SCT046 29/12 A3011 RMK AO2 T02880116 10288
                 20198 =
2015-08-27 13:35 METAR KFYJ 271735Z AUTO 32005KT 10SM CLR 29/13 A3011 RMK AO2 T02850125 =
2015-08-27 13:15 METAR KFYJ 271715Z AUTO 09005KT 10SM CLR 28/13 A3012 RMK AO2 T02830126 =
2015-08-27 12:55 METAR KFYJ 271655Z AUTO 00000KT 10SM CLR 28/13 A3012 RMK AO2 T02790126 =
2015-08-27 12:35 METAR KFYJ 271635Z AUTO 00000KT 10SM CLR 28/13 A3013 RMK AO2 T02770125 =
2015-08-27 12:15 METAR KFYJ 271615Z AUTO 01005KT 10SM CLR 27/14 A3014 RMK AO2 T02730136 =
2015-08-27 11:55 METAR KFYJ 271555Z AUTO 06005KT 10SM CLR 27/14 A3014 RMK AO2 T02660140 =
2015-08-27 11:35 METAR KFYJ 271535Z AUTO 03003KT 10SM CLR 26/15 A3015 RMK AO2 T02610148 =
2015-08-27 11:15 METAR KFYJ 271515Z AUTO 04004KT 10SM CLR 25/15 A3015 RMK AO2 T02510153 =
2015-08-27 10:55 METAR KFYJ 271455Z AUTO 02003KT 10SM CLR 25/15 A3014 RMK AO2 T02450154 =
2015-08-27 10:35 METAR KFYJ 271435Z AUTO 01004KT 10SM CLR 25/15 A3014 RMK AO2 T02480154 =
2015-08-27 10:15 METAR KFYJ 271415Z AUTO 01004KT 10SM SCT090 SCT120 24/16 A3013 RMK AO2 T02420158
                 =
2015-08-27 09:55 METAR KFYJ 271355Z AUTO 02004KT 10SM SCT080 24/15 A3013 RMK AO2 T02350151 =
2015-08-27 09:35 METAR KFYJ 271335Z AUTO 36005KT 10SM SCT080 24/15 A3013 RMK AO2 T02350154 =
2015-08-27 09:15 METAR KFYJ 271315Z AUTO 01006KT 10SM SCT080 23/16 A3013 RMK AO2 T02280157 =
2015-08-27 08:55 METAR KFYJ 271255Z AUTO 00000KT 10SM BKN080 21/16 A3013 RMK AO2 T02140162 =
2015-08-27 08:35 METAR KFYJ 271235Z AUTO 00000KT 10SM BKN080 21/16 A3012 RMK AO2 T02060162 =
2015-08-27 08:15 METAR KFYJ 271215Z AUTO 35004KT 10SM SCT080 20/16 A3011 RMK AO2 T02010161 =
2015-08-27 07:55 METAR KFYJ 271155Z AUTO 34004KT 10SM SCT090 20/16 A3011 RMK AO2 T01980160 10210
                 20193 =
2015-08-27 07:35 METAR KFYJ 271135Z AUTO 00000KT 10SM SCT075 BKN100 20/16 A3010 RMK AO2 T01950160
                 =
2015-08-27 07:15 METAR KFYJ 271115Z AUTO 00000KT 10SM SCT100 19/16 A3009 RMK AO2 T01930157 =
2015-08-27 06:55 METAR KFYJ 271055Z AUTO 00000KT 10SM BKN100 20/16 A3009 RMK AO2 T01950156 =
2015-08-27 06:35 METAR KFYJ 271035Z AUTO 33003KT 10SM SCT080 SCT090 20/16 A3008 RMK AO2 T01970155
                 =
2015-08-27 06:15 METAR KFYJ 271015Z AUTO 33003KT 10SM SCT080 BKN090 20/16 A3008 RMK AO2 T01980155
                 =
2015-08-27 05:55 METAR KFYJ 270955Z AUTO 35003KT 10SM BKN080 20/15 A3006 RMK AO2 T02020153 =
2015-08-27 05:35 METAR KFYJ 270935Z AUTO 00000KT 10SM BKN080 BKN095 20/16 A3006 RMK AO2 T02040155
                 =
2015-08-27 05:15 METAR KFYJ 270915Z AUTO 34003KT 10SM BKN080 20/16 A3006 RMK AO2 T02000157 =
2015-08-27 04:15 METAR KFYJ 270815Z AUTO 35005KT 10SM SCT110 20/16 A3005 RMK AO2 T01980155 =
2015-08-27 03:55 METAR KFYJ 270755Z AUTO 35004KT 10SM SCT080 SCT110 20/16 A3006 RMK AO2 T01950157
                 =
2015-08-27 03:35 METAR KFYJ 270735Z AUTO 00000KT 10SM SCT110 20/16 A3006 RMK AO2 T01980157 =
2015-08-27 03:15 METAR KFYJ 270715Z AUTO 00000KT 10SM SCT085 BKN110 20/16 A3006 RMK AO2 T02000164
                 =
2015-08-27 02:55 METAR KFYJ 270655Z AUTO 00000KT 10SM BKN085 BKN110 20/17 A3006 RMK AO2 T02020167
                 =
2015-08-27 02:35 METAR KFYJ 270635Z AUTO 00000KT 10SM OVC085 20/16 A3006 RMK AO2 T02030164 =
2015-08-27 02:15 METAR KFYJ 270615Z AUTO 00000KT 10SM OVC085 21/16 A3006 RMK AO2 T02070159 =
2015-08-27 01:55 METAR KFYJ 270555Z AUTO 00000KT 10SM BKN085 21/16 A3006 RMK AO2 T02080160 10241
                 20197 403020188 =
2015-08-27 01:35 METAR KFYJ 270535Z AUTO 00000KT 10SM BKN085 20/17 A3006 RMK AO2 T02040166 =
2015-08-27 01:15 METAR KFYJ 270515Z AUTO 00000KT 10SM SCT085 SCT110 20/16 A3006 RMK AO2 T02040164
                 =
2015-08-27 00:55 METAR KFYJ 270455Z AUTO 00000KT 10SM BKN085 BKN110 21/17 A3007 RMK AO2 T02060165
                 =
2015-08-27 00:35 METAR KFYJ 270435Z AUTO 00000KT 10SM BKN085 OVC110 21/17 A3007 RMK AO2 T02090168
                 =
2015-08-27 00:15 METAR KFYJ 270415Z AUTO 00000KT 10SM OVC085 20/17 A3008 RMK AO2 T02030172 =
2015-08-26 23:35 METAR KFYJ 270335Z AUTO 00000KT 10SM BKN095 21/17 A3007 RMK AO2 T02050170 =
2015-08-26 23:15 METAR KFYJ 270315Z AUTO 00000KT 10SM SCT095 20/17 A3008 RMK AO2 T02000169 =
2015-08-26 22:55 METAR KFYJ 270255Z AUTO 00000KT 10SM SCT120 20/17 A3007 RMK AO2 T02000170 =
2015-08-26 22:35 METAR KFYJ 270235Z AUTO 00000KT 10SM SCT095 SCT120 20/17 A3007 RMK AO2 T02040165
                 =
2015-08-26 22:15 METAR KFYJ 270215Z AUTO 36003KT 10SM SCT095 BKN120 21/17 A3007 RMK AO2 T02060167
                 =
2015-08-26 21:55 METAR KFYJ 270155Z AUTO 00000KT 10SM SCT100 BKN120 21/16 A3006 RMK AO2 T02140162
                 =
2015-08-26 21:35 METAR KFYJ 270135Z AUTO 05003KT 10SM BKN100 22/17 A3005 RMK AO2 T02150165 =
2015-08-26 21:15 METAR KFYJ 270115Z AUTO 00000KT 10SM SCT100 SCT120 23/16 A3005 RMK AO2 T02260159
                 =
2015-08-26 20:55 METAR KFYJ 270055Z AUTO 02003KT 10SM SCT100 SCT120 23/16 A3004 RMK AO2 T02300158
                 =
2015-08-26 20:35 METAR KFYJ 270035Z AUTO 00000KT 10SM SCT100 SCT120 23/16 A3004 RMK AO2 T02270162
                 =
2015-08-26 20:15 METAR KFYJ 270015Z AUTO 00000KT 10SM SCT070 SCT110 23/16 A3003 RMK AO2 T02300161
                 =
2015-08-26 19:55 METAR KFYJ 262355Z AUTO 00000KT 10SM SCT070 SCT100 SCT120 24/16 A3003 RMK AO2
                 T02420156 10302 20242 =
2015-08-26 19:35 METAR KFYJ 262335Z AUTO 00000KT 10SM SCT070 BKN100 25/16 A3003 RMK AO2 T02490155
                 =
2015-08-26 19:15 METAR KFYJ 262315Z AUTO 00000KT 10SM BKN100 BKN120 25/16 A3003 RMK AO2 T02540155
                 =
2015-08-26 18:55 METAR KFYJ 262255Z AUTO 02003KT 10SM SCT070 OVC100 26/15 A3002 RMK AO2 T02590151
                 =
2015-08-26 18:15 METAR KFYJ 262215Z AUTO 00000KT 10SM OVC055 27/15 A3001 RMK AO2 T02690149 =
2015-08-26 17:55 METAR KFYJ 262155Z AUTO 36003KT 10SM OVC049 27/15 A3001 RMK AO2 T02700145 =
2015-08-26 17:35 METAR KFYJ 262135Z AUTO 36003KT 10SM BKN047 OVC050 27/14 A3001 RMK AO2 T02700144
                 =

Support USWX by starting your Amazon purchase here.